Wetterdaten: Woche 13.03.23 - 19.03.23 (KW11)
Datum Zeit Temp. A. Feuchte A. Luftdruck Regen Wind Richtung Taupunkt Windchill
13.03.2023 00:00 7,0 C 85 % 1014 hPa 0,0 l/m 0,0 km/h (0 Bft) W 4,6 C 7,0 C
13.03.2023 01:00 7,0 C 84 % 1013 hPa 0,0 l/m 1,7 km/h (1 Bft) W-SW 4,6 C 6,6 C
13.03.2023 02:00 6,9 C 84 % 1013 hPa 0,0 l/m 0,0 km/h (0 Bft) SW 4,4 C 6,9 C
13.03.2023 03:00 6,8 C 84 % 1012 hPa 0,0 l/m 0,0 km/h (0 Bft) S-SO 4,3 C 6,8 C
13.03.2023 04:00 6,7 C 85 % 1011 hPa 0,0 l/m 0,0 km/h (0 Bft) S-SO 4,3 C 6,7 C
13.03.2023 05:00 7,4 C 85 % 1010 hPa 0,0 l/m 0,0 km/h (0 Bft) S-SW 5,0 C 7,4 C
13.03.2023 06:00 8,3 C 83 % 1008 hPa 0,0 l/m 1,2 km/h (1 Bft) SW 5,6 C 8,2 C
13.03.2023 07:00 8,7 C 83 % 1008 hPa 0,0 l/m 5,8 km/h (2 Bft) S 5,9 C 7,1 C
13.03.2023 08:00 9,1 C 84 % 1008 hPa 0,0 l/m 3,3 km/h (1 Bft) W-SW 6,5 C 8,6 C
13.03.2023 09:00 10,3 C 83 % 1008 hPa 0,0 l/m 0,0 km/h (0 Bft) W 7,6 C 10,3 C
13.03.2023 10:00 11,9 C 81 % 1008 hPa 0,0 l/m 3,7 km/h (1 Bft) W-SW 8,7 C 11,0 C
13.03.2023 11:00 12,3 C 80 % 1007 hPa 0,0 l/m 5,7 km/h (1 Bft) W-SW 8,9 C 11,4 C
13.03.2023 12:00 13,9 C 78 % 1006 hPa 0,0 l/m 5,3 km/h (1 Bft) W-NW 10,1 C 13,4 C
13.03.2023 13:00 15,2 C 74 % 1006 hPa 0,0 l/m 3,8 km/h (1 Bft) W-SW 10,5 C 14,6 C
13.03.2023 14:00 14,4 C 75 % 1006 hPa 0,0 l/m 0,0 km/h (0 Bft) W 10,0 C 14,4 C
13.03.2023 15:00 14,8 C 75 % 1005 hPa 0,0 l/m 5,2 km/h (1 Bft) S-SW 10,4 C 13,8 C
13.03.2023 16:00 15,0 C 74 % 1004 hPa 0,0 l/m 0,8 km/h (0 Bft) S 10,4 C 15,0 C
13.03.2023 17:00 14,5 C 75 % 1003 hPa 0,0 l/m 0,0 km/h (0 Bft) SW 10,1 C 14,5 C
13.03.2023 18:00 13,7 C 77 % 1003 hPa 2,6 l/m 0,8 km/h (0 Bft) SW 9,7 C 13,7 C
13.03.2023 19:00 11,0 C 85 % 1003 hPa 2,6 l/m 7,7 km/h (2 Bft) SO 8,7 C 9,5 C
13.03.2023 20:00 9,7 C 87 % 1002 hPa 0,0 l/m 0,0 km/h (0 Bft) SW 7,7 C 9,7 C
13.03.2023 21:00 10,0 C 88 % 1001 hPa 0,0 l/m 6,2 km/h (2 Bft) SW 8,1 C 8,2 C
13.03.2023 22:00 10,1 C 88 % 1002 hPa 1,0 l/m 0,5 km/h (0 Bft) SW 8,2 C 10,1 C
13.03.2023 23:00 9,5 C 90 % 1000 hPa 1,0 l/m 3,2 km/h (1 Bft) SW 7,9 C 8,7 C
14.03.2023 00:00 9,4 C 90 % 1000 hPa 0,0 l/m 1,9 km/h (1 Bft) N-NO 7,8 C 8,9 C
14.03.2023 01:00 9,2 C 89 % 1000 hPa 0,0 l/m 0,5 km/h (0 Bft) SW 7,5 C 9,2 C
14.03.2023 02:00 9,4 C 89 % 1000 hPa 0,0 l/m 4,8 km/h (1 Bft) S-SW 7,6 C 8,2 C
14.03.2023 03:00 9,8 C 86 % 999 hPa 0,0 l/m 0,5 km/h (0 Bft) W 7,4 C 9,8 C
14.03.2023 04:00 9,9 C 82 % 998 hPa 0,0 l/m 1,4 km/h (1 Bft) N-NO 7,0 C 9,9 C
14.03.2023 05:00 9,8 C 81 % 998 hPa 0,0 l/m 0,4 km/h (0 Bft) W 6,7 C 9,8 C
14.03.2023 06:00 9,8 C 81 % 998 hPa 0,0 l/m 6,5 km/h (2 Bft) W 6,6 C 8,0 C
14.03.2023 07:00 9,7 C 80 % 998 hPa 0,0 l/m 2,6 km/h (1 Bft) W 6,5 C 9,4 C
14.03.2023 08:00 10,0 C 79 % 998 hPa 0,0 l/m 4,0 km/h (1 Bft) S-SO 6,6 C 8,7 C
14.03.2023 09:00 10,8 C 77 % 998 hPa 0,0 l/m 0,0 km/h (0 Bft) S-SW 6,9 C 10,8 C
14.03.2023 10:00 11,5 C 74 % 998 hPa 0,0 l/m 1,0 km/h (0 Bft) W-NW 7,1 C 11,5 C
14.03.2023 11:00 12,3 C 72 % 998 hPa 0,0 l/m 2,4 km/h (1 Bft) W-NW 7,4 C 11,9 C
14.03.2023 12:00 12,6 C 72 % 998 hPa 0,0 l/m 1,7 km/h (1 Bft) S 7,7 C 12,2 C
14.03.2023 13:00 13,2 C 70 % 998 hPa 0,0 l/m 2,6 km/h (1 Bft) W 7,9 C 12,8 C
14.03.2023 14:00 14,0 C 67 % 998 hPa 0,0 l/m 1,1 km/h (1 Bft) S-SW 8,0 C 14,0 C
14.03.2023 15:00 12,3 C 71 % 998 hPa 0,0 l/m 2,0 km/h (1 Bft) W 7,1 C 12,2 C
14.03.2023 16:00 7,3 C 82 % 1001 hPa 2,6 l/m 8,9 km/h (2 Bft) W-NW 4,5 C 5,3 C
14.03.2023 17:00 4,0 C 87 % 1004 hPa 0,5 l/m 8,8 km/h (2 Bft) W-NW 2,0 C 1,9 C
14.03.2023 18:00 3,0 C 87 % 1007 hPa 0,0 l/m 2,6 km/h (1 Bft) W-NW 1,0 C 3,0 C
14.03.2023 19:00 3,0 C 88 % 1009 hPa 0,0 l/m 2,5 km/h (1 Bft) W-NW 1,2 C 2,4 C
14.03.2023 20:00 2,5 C 86 % 1010 hPa 0,0 l/m 1,4 km/h (1 Bft) W-NW 0,4 C 2,2 C
14.03.2023 21:00 1,7 C 86 % 1011 hPa 0,0 l/m 0,7 km/h (0 Bft) W-NW -0,4 C 1,7 C
14.03.2023 22:00 1,6 C 86 % 1012 hPa 0,0 l/m 0,0 km/h (0 Bft) W-NW -0,5 C 1,6 C
14.03.2023 23:00 1,6 C 85 % 1013 hPa 0,0 l/m 0,0 km/h (0 Bft) NW -0,6 C 1,6 C
15.03.2023 00:00 1,4 C 85 % 1014 hPa 0,0 l/m 0,0 km/h (0 Bft) NW -0,8 C 1,4 C
15.03.2023 01:00 1,2 C 85 % 1015 hPa 0,0 l/m 0,0 km/h (0 Bft) NW -1,1 C 1,2 C
15.03.2023 02:00 1,3 C 83 % 1015 hPa 0,0 l/m 0,0 km/h (0 Bft) W-NW -1,3 C 1,3 C
15.03.2023 03:00 1,1 C 80 % 1016 hPa 0,0 l/m 0,0 km/h (0 Bft) W-NW -1,9 C 1,1 C
15.03.2023 04:00 0,6 C 81 % 1016 hPa 0,0 l/m 1,2 km/h (1 Bft) W -2,3 C 0,6 C
15.03.2023 05:00 0,0 C 81 % 1017 hPa 0,0 l/m 0,0 km/h (0 Bft) W -2,8 C 0,0 C
15.03.2023 06:00 -0,1 C 82 % 1018 hPa 0,0 l/m 0,0 km/h (0 Bft) W -2,8 C -0,1 C
15.03.2023 07:00 0,2 C 83 % 1018 hPa 0,0 l/m 0,0 km/h (0 Bft) S-SW -2,4 C 0,2 C
15.03.2023 08:00 1,5 C 82 % 1019 hPa 0,0 l/m 0,9 km/h (0 Bft) SW -1,2 C 1,5 C
15.03.2023 09:00 2,2 C 82 % 1019 hPa 0,0 l/m 0,0 km/h (0 Bft) W -0,6 C 2,2 C
15.03.2023 10:00 2,6 C 81 % 1020 hPa 0,0 l/m 0,0 km/h (0 Bft) W -0,2 C 2,6 C
15.03.2023 11:00 2,8 C 84 % 1020 hPa 0,0 l/m 0,0 km/h (0 Bft) W 0,3 C 2,8 C
15.03.2023 12:00 2,5 C 84 % 1021 hPa 0,0 l/m 1,3 km/h (1 Bft) W-NW 0,1 C 2,2 C
15.03.2023 13:00 1,6 C 86 % 1021 hPa 1,0 l/m 0,0 km/h (0 Bft) W-SW -0,5 C 1,6 C
15.03.2023 14:00 3,1 C 88 % 1021 hPa 0,0 l/m 0,0 km/h (0 Bft) W 1,3 C 3,1 C
15.03.2023 15:00 4,4 C 82 % 1021 hPa 0,0 l/m 2,5 km/h (1 Bft) W-NW 1,6 C 4,1 C
15.03.2023 16:00 6,2 C 69 % 1021 hPa 0,0 l/m 0,4 km/h (0 Bft) W-NW 1,0 C 6,2 C
15.03.2023 17:00 3,8 C 73 % 1023 hPa 0,0 l/m 8,6 km/h (2 Bft) N -0,7 C 0,5 C
15.03.2023 18:00 2,0 C 77 % 1024 hPa 0,0 l/m 0,0 km/h (0 Bft) N -1,6 C 2,0 C
15.03.2023 19:00 0,6 C 79 % 1024 hPa 0,0 l/m 0,0 km/h (0 Bft) N -2,7 C 0,6 C
15.03.2023 20:00 -0,4 C 81 % 1025 hPa 0,0 l/m 0,0 km/h (0 Bft) N -3,4 C -0,4 C
15.03.2023 21:00 -1,0 C 82 % 1025 hPa 0,0 l/m 0,0 km/h (0 Bft) N -3,8 C -1,0 C
15.03.2023 22:00 -1,6 C 83 % 1026 hPa 0,0 l/m 0,0 km/h (0 Bft) N -4,1 C -1,6 C
15.03.2023 23:00 -1,9 C 84 % 1026 hPa 0,0 l/m 0,0 km/h (0 Bft) N -4,2 C -1,9 C
16.03.2023 00:00 -2,2 C 85 % 1026 hPa 0,0 l/m 0,0 km/h (0 Bft) N -4,4 C -2,2 C
16.03.2023 01:00 -2,5 C 85 % 1026 hPa 0,0 l/m 0,0 km/h (0 Bft) N -4,6 C -2,5 C
16.03.2023 02:00 -2,5 C 86 % 1026 hPa 0,0 l/m 0,0 km/h (0 Bft) N -4,5 C -2,5 C
16.03.2023 03:00 -2,7 C 86 % 1026 hPa 0,0 l/m 0,0 km/h (0 Bft) N -4,7 C -2,7 C
16.03.2023 04:00 -2,9 C 87 % 1026 hPa 0,0 l/m 0,0 km/h (0 Bft) SO -4,7 C -2,9 C
16.03.2023 05:00 -3,0 C 87 % 1026 hPa 0,0 l/m 0,0 km/h (0 Bft) SO -4,9 C -3,0 C
16.03.2023 06:00 -3,2 C 88 % 1026 hPa 0,0 l/m 0,0 km/h (0 Bft) SO -4,9 C -3,2 C
16.03.2023 07:00 -2,9 C 88 % 1027 hPa 0,0 l/m 0,0 km/h (0 Bft) SO -4,6 C -2,9 C
16.03.2023 08:00 -1,6 C 88 % 1026 hPa 0,0 l/m 0,0 km/h (0 Bft) SO -3,3 C -1,6 C
16.03.2023 09:00 0,6 C 88 % 1026 hPa 0,0 l/m 0,0 km/h (0 Bft) SO -1,2 C 0,6 C
16.03.2023 10:00 4,3 C 82 % 1027 hPa 0,0 l/m 0,0 km/h (0 Bft) S-SO 1,5 C 4,3 C
16.03.2023 11:00 7,0 C 70 % 1026 hPa 0,0 l/m 4,4 km/h (1 Bft) S-SO 1,8 C 5,9 C
16.03.2023 12:00 8,0 C 60 % 1026 hPa 0,0 l/m 2,3 km/h (1 Bft) S-SO 0,8 C 7,7 C
16.03.2023 13:00 8,9 C 55 % 1025 hPa 0,0 l/m 2,9 km/h (1 Bft) S-SO 0,2 C 8,7 C
16.03.2023 14:00 9,6 C 50 % 1025 hPa 0,0 l/m 4,0 km/h (1 Bft) S-SO -0,4 C 8,4 C
16.03.2023 15:00 10,0 C 50 % 1024 hPa 0,0 l/m 6,1 km/h (2 Bft) S-SO -0,0 C 8,4 C
16.03.2023 16:00 9,2 C 51 % 1024 hPa 0,0 l/m 0,1 km/h (0 Bft) O-SO -0,4 C 9,2 C
16.03.2023 17:00 7,6 C 55 % 1023 hPa 0,0 l/m 1,0 km/h (0 Bft) O-SO -0,8 C 7,6 C
16.03.2023 18:00 6,0 C 60 % 1023 hPa 0,0 l/m 2,5 km/h (1 Bft) O-SO -1,2 C 5,6 C
16.03.2023 19:00 4,8 C 64 % 1023 hPa 0,0 l/m 1,4 km/h (1 Bft) SO -1,5 C 4,5 C
16.03.2023 20:00 3,9 C 67 % 1023 hPa 0,0 l/m 0,0 km/h (0 Bft) O-SO -1,7 C 3,9 C
16.03.2023 21:00 3,3 C 69 % 1022 hPa 0,0 l/m 0,0 km/h (0 Bft) O-SO -1,7 C 3,3 C
16.03.2023 22:00 3,6 C 70 % 1022 hPa 0,0 l/m 0,0 km/h (0 Bft) SO -1,3 C 3,6 C
16.03.2023 23:00 3,8 C 69 % 1022 hPa 0,0 l/m 0,0 km/h (0 Bft) S -1,3 C 3,8 C
17.03.2023 00:00 3,8 C 69 % 1021 hPa 0,0 l/m 0,0 km/h (0 Bft) S-SO -1,4 C 3,8 C
17.03.2023 01:00 3,9 C 67 % 1020 hPa 0,0 l/m 0,0 km/h (0 Bft) SO -1,7 C 3,9 C
17.03.2023 02:00 4,1 C 65 % 1020 hPa 0,0 l/m 0,7 km/h (0 Bft) SO -2,0 C 4,1 C
17.03.2023 03:00 4,4 C 63 % 1019 hPa 0,0 l/m 0,0 km/h (0 Bft) W-SW -2,0 C 4,4 C
17.03.2023 04:00 4,7 C 61 % 1019 hPa 0,0 l/m 0,0 km/h (0 Bft) W-NW -2,2 C 4,7 C
17.03.2023 05:00 4,9 C 59 % 1019 hPa 0,0 l/m 0,0 km/h (0 Bft) S-SO -2,4 C 4,9 C
17.03.2023 06:00 4,8 C 59 % 1019 hPa 0,0 l/m 0,4 km/h (0 Bft) S-SO -2,5 C 4,8 C
17.03.2023 07:00 4,9 C 60 % 1018 hPa 0,0 l/m 1,4 km/h (1 Bft) O-SO -2,3 C 4,6 C
17.03.2023 08:00 6,0 C 59 % 1019 hPa 0,0 l/m 0,0 km/h (0 Bft) S-SO -1,5 C 6,0 C
17.03.2023 09:00 8,4 C 56 % 1018 hPa 0,0 l/m 1,2 km/h (1 Bft) S-SO 0,1 C 8,3 C
17.03.2023 10:00 11,5 C 50 % 1018 hPa 0,0 l/m 0,0 km/h (0 Bft) S 1,3 C 11,5 C
17.03.2023 11:00 13,6 C 44 % 1018 hPa 0,0 l/m 4,5 km/h (1 Bft) S-SO 1,5 C 12,8 C
17.03.2023 12:00 15,5 C 41 % 1017 hPa 0,0 l/m 0,3 km/h (0 Bft) O-SO 2,4 C 15,5 C
17.03.2023 13:00 16,9 C 40 % 1017 hPa 0,0 l/m 2,9 km/h (1 Bft) S-SO 3,3 C 16,6 C
17.03.2023 14:00 19,3 C 39 % 1016 hPa 0,0 l/m 0,2 km/h (0 Bft) S-SO 5,0 C 19,3 C
17.03.2023 15:00 20,0 C 33 % 1016 hPa 0,0 l/m 2,6 km/h (1 Bft) SO 3,4 C 19,8 C
17.03.2023 16:00 18,4 C 37 % 1016 hPa 0,0 l/m 3,0 km/h (1 Bft) S-SO 3,5 C 18,0 C
17.03.2023 17:00 16,2 C 41 % 1015 hPa 0,0 l/m 2,4 km/h (1 Bft) SO 3,0 C 15,7 C
17.03.2023 18:00 13,7 C 46 % 1015 hPa 0,0 l/m 0,0 km/h (0 Bft) O-SO 2,2 C 13,7 C
17.03.2023 19:00 12,1 C 50 % 1016 hPa 0,0 l/m 0,0 km/h (0 Bft) O-SO 1,9 C 12,1 C
17.03.2023 20:00 11,3 C 52 % 1016 hPa 0,0 l/m 2,5 km/h (1 Bft) O-SO 1,6 C 10,5 C
17.03.2023 21:00 10,5 C 54 % 1016 hPa 0,0 l/m 0,0 km/h (0 Bft) SO 1,5 C 10,5 C
17.03.2023 22:00 10,1 C 54 % 1016 hPa 0,0 l/m 0,0 km/h (0 Bft) O-NO 1,2 C 10,1 C
17.03.2023 23:00 9,7 C 55 % 1016 hPa 0,0 l/m 0,0 km/h (0 Bft) O 1,1 C 9,7 C
18.03.2023 00:00 9,7 C 56 % 1016 hPa 0,0 l/m 0,0 km/h (0 Bft) N-NO 1,2 C 9,7 C
18.03.2023 01:00 9,8 C 56 % 1016 hPa 0,0 l/m 0,0 km/h (0 Bft) N-NO 1,3 C 9,8 C
18.03.2023 02:00 9,4 C 57 % 1016 hPa 0,0 l/m 0,0 km/h (0 Bft) N-NO 1,2 C 9,4 C
18.03.2023 03:00 9,1 C 58 % 1016 hPa 0,0 l/m 0,0 km/h (0 Bft) S 1,3 C 9,1 C
18.03.2023 04:00 8,9 C 59 % 1017 hPa 0,0 l/m 0,0 km/h (0 Bft) S-SW 1,2 C 8,9 C
18.03.2023 05:00 8,4 C 61 % 1017 hPa 0,0 l/m 0,0 km/h (0 Bft) S-SW 1,2 C 8,4 C
18.03.2023 06:00 8,4 C 62 % 1017 hPa 0,0 l/m 0,0 km/h (0 Bft) S-SW 1,5 C 8,4 C
18.03.2023 07:00 8,3 C 64 % 1017 hPa 0,0 l/m 0,0 km/h (0 Bft) SW 1,9 C 8,3 C
18.03.2023 08:00 9,9 C 64 % 1017 hPa 0,0 l/m 0,0 km/h (0 Bft) SO 3,4 C 9,9 C
18.03.2023 09:00 11,1 C 62 % 1018 hPa 0,0 l/m 0,0 km/h (0 Bft) SO 4,1 C 11,1 C
18.03.2023 10:00 12,3 C 62 % 1018 hPa 0,0 l/m 0,0 km/h (0 Bft) SW 5,2 C 12,3 C
18.03.2023 11:00 14,7 C 60 % 1018 hPa 0,0 l/m 0,0 km/h (0 Bft) S 7,0 C 14,7 C
18.03.2023 12:00 17,3 C 57 % 1018 hPa 0,0 l/m 0,0 km/h (0 Bft) S-SO 8,6 C 17,3 C
18.03.2023 13:00 18,0 C 55 % 1018 hPa 0,0 l/m 0,4 km/h (0 Bft) O-SO 8,7 C 18,0 C
18.03.2023 14:00 18,3 C 55 % 1018 hPa 0,0 l/m 0,0 km/h (0 Bft) N-NW 9,2 C 18,3 C
18.03.2023 15:00 18,4 C 54 % 1018 hPa 0,0 l/m 0,0 km/h (0 Bft) N-NW 8,9 C 18,4 C
18.03.2023 16:00 18,2 C 55 % 1017 hPa 0,0 l/m 0,0 km/h (0 Bft) N-NW 8,9 C 18,2 C
18.03.2023 17:00 17,3 C 56 % 1017 hPa 0,0 l/m 0,0 km/h (0 Bft) N-NW 8,5 C 17,3 C
18.03.2023 18:00 15,4 C 59 % 1018 hPa 0,0 l/m 0,0 km/h (0 Bft) O 7,3 C 15,4 C
18.03.2023 19:00 13,6 C 63 % 1018 hPa 0,0 l/m 0,0 km/h (0 Bft) O-NO 6,6 C 13,6 C
18.03.2023 20:00 12,3 C 66 % 1018 hPa 0,0 l/m 0,0 km/h (0 Bft) O-NO 6,1 C 12,3 C
18.03.2023 21:00 11,5 C 67 % 1018 hPa 0,0 l/m 0,0 km/h (0 Bft) O-SO 5,7 C 11,5 C
18.03.2023 22:00 11,1 C 68 % 1018 hPa 0,0 l/m 0,0 km/h (0 Bft) O-SO 5,4 C 11,1 C
18.03.2023 23:00 10,6 C 68 % 1018 hPa 0,0 l/m 0,0 km/h (0 Bft) O-SO 5,0 C 10,6 C
19.03.2023 00:00 9,8 C 69 % 1018 hPa 0,0 l/m 0,0 km/h (0 Bft) O-SO 4,5 C 9,8 C
19.03.2023 01:00 9,7 C 70 % 1018 hPa 0,0 l/m 0,0 km/h (0 Bft) O-SO 4,5 C 9,7 C
19.03.2023 02:00 9,8 C 69 % 1018 hPa 0,0 l/m 0,0 km/h (0 Bft) S-SO 4,4 C 9,8 C
19.03.2023 03:00 9,4 C 70 % 1018 hPa 0,0 l/m 0,0 km/h (0 Bft) S-SO 4,1 C 9,4 C
19.03.2023 04:00 8,6 C 70 % 1018 hPa 0,0 l/m 0,0 km/h (0 Bft) S-SO 3,4 C 8,6 C
19.03.2023 05:00 7,8 C 71 % 1018 hPa 0,0 l/m 0,0 km/h (0 Bft) S-SO 2,9 C 7,8 C
19.03.2023 06:00 7,1 C 73 % 1019 hPa 0,0 l/m 0,0 km/h (0 Bft) S-SO 2,7 C 7,1 C
19.03.2023 07:00 7,8 C 75 % 1019 hPa 0,0 l/m 0,0 km/h (0 Bft) S-SO 3,7 C 7,8 C
19.03.2023 08:00 9,6 C 74 % 1019 hPa 0,0 l/m 0,0 km/h (0 Bft) SW 5,1 C 9,6 C
19.03.2023 09:00 10,1 C 75 % 1020 hPa 0,0 l/m 0,0 km/h (0 Bft) S-SO 5,8 C 10,1 C
19.03.2023 10:00 12,0 C 74 % 1020 hPa 0,0 l/m 0,0 km/h (0 Bft) S-SO 7,5 C 12,0 C
19.03.2023 11:00 12,4 C 74 % 1020 hPa 0,0 l/m 0,0 km/h (0 Bft) W 7,9 C 12,4 C
19.03.2023 12:00 11,3 C 79 % 1021 hPa 0,0 l/m 0,4 km/h (0 Bft) W-NW 7,8 C 11,3 C
19.03.2023 13:00 10,6 C 82 % 1021 hPa 0,5 l/m 0,0 km/h (0 Bft) W 7,6 C 10,6 C
19.03.2023 14:00 11,2 C 83 % 1021 hPa 0,0 l/m 0,0 km/h (0 Bft) S-SW 8,3 C 11,2 C
19.03.2023 15:00 12,2 C 81 % 1020 hPa 0,0 l/m 0,0 km/h (0 Bft) S-SW 9,0 C 12,2 C
19.03.2023 16:00 13,8 C 77 % 1020 hPa 0,0 l/m 0,0 km/h (0 Bft) SW 9,9 C 13,8 C
19.03.2023 17:00 13,7 C 75 % 1020 hPa 0,0 l/m 0,0 km/h (0 Bft) S-SW 9,3 C 13,7 C
19.03.2023 18:00 11,7 C 77 % 1021 hPa 0,0 l/m 0,0 km/h (0 Bft) S-SW 7,7 C 11,7 C
19.03.2023 19:00 10,5 C 79 % 1021 hPa 0,0 l/m 0,0 km/h (0 Bft) S-SW 7,0 C 10,5 C
19.03.2023 20:00 9,9 C 80 % 1021 hPa 0,0 l/m 0,0 km/h (0 Bft) S-SW 6,6 C 9,9 C
19.03.2023 21:00 9,7 C 80 % 1022 hPa 0,0 l/m 0,0 km/h (0 Bft) S 6,4 C 9,7 C
19.03.2023 22:00 9,0 C 80 % 1022 hPa 0,0 l/m 0,0 km/h (0 Bft) S 5,8 C 9,0 C
19.03.2023 23:00 8,4 C 82 % 1022 hPa 0,0 l/m 0,0 km/h (0 Bft) S 5,4 C 8,4 C
Min-Datum _ 16.03.23 17.03.23 14.03.23 - 19.03.23 - 16.03.23 15.03.23
_ Min-Zeit 06:13 15:33 15:03 - 23:03 - 06:13 17:03
Minimum _ -3,2 C 32 % 998 hPa - 0,0 km/h (0 Bft) - -5,0 C -4,5 C
Max-Datum _ 17.03.23 14.03.23 16.03.23 14.03.23 15.03.23 - 13.03.23 17.03.23
_ Max-Zeit 15:03 01:03 11:03 16:13 17:03 - 13:13 15:13
Maximum _ 20,3 C 90 % 1027 hPa 2,6 l/m 25,6 km/h
N (4 Bft)
- 11,0 C 20,3 C
Durchschnitt _ 8,0 C 72 % 1015 hPa #11,9 l/m 1,0 km/h (0 Bft) S-SO 3,0 C 7,8 C